createdAt,value
2023-01-23T00:00:18.573Z,4.22
2023-01-23T00:05:22.685Z,4.05
2023-01-23T00:10:27.903Z,3.95
2023-01-23T00:15:34.459Z,4.80
2023-01-23T00:20:39.202Z,5.20
2023-01-23T00:25:44.267Z,4.82
2023-01-23T00:30:49.741Z,5.72
2023-01-23T00:35:55.678Z,5.32
2023-01-23T00:41:00.693Z,5.28
2023-01-23T00:46:06.261Z,6.15
2023-01-23T00:51:10.372Z,7.35
2023-01-23T00:56:14.815Z,5.40
2023-01-23T01:01:22.790Z,5.22
2023-01-23T01:06:28.946Z,4.90
2023-01-23T01:11:34.313Z,7.03
2023-01-23T01:16:45.141Z,7.15
2023-01-23T01:21:50.812Z,9.68
2023-01-23T01:26:58.151Z,7.57
2023-01-23T01:32:03.959Z,7.45
2023-01-23T01:37:10.388Z,6.07
2023-01-23T01:42:15.183Z,7.57
2023-01-23T01:47:21.173Z,7.35
2023-01-23T01:52:26.676Z,6.38
2023-01-23T01:57:33.153Z,6.68
2023-01-23T02:02:45.033Z,8.07
2023-01-23T02:07:55.180Z,5.70
2023-01-23T02:13:21.358Z,5.90
2023-01-23T02:18:31.230Z,4.07
2023-01-23T02:23:53.155Z,3.53
2023-01-23T02:29:02.624Z,4.45
2023-01-23T02:34:13.584Z,5.10
2023-01-23T02:39:19.341Z,5.15
2023-01-23T02:44:32.333Z,5.75
2023-01-23T02:49:39.461Z,6.45
2023-01-23T02:54:45.475Z,6.20
2023-01-23T03:00:09.537Z,6.13
2023-01-23T03:05:13.603Z,4.90
2023-01-23T03:10:18.356Z,5.85
2023-01-23T03:15:24.834Z,6.20
2023-01-23T03:20:31.214Z,5.15
2023-01-23T03:25:35.176Z,6.72
2023-01-23T03:30:41.555Z,5.75
2023-01-23T03:35:45.974Z,5.43
2023-01-23T03:41:10.231Z,5.80
2023-01-23T03:46:16.641Z,5.78
2023-01-23T03:51:21.395Z,5.45
2023-01-23T03:56:25.515Z,6.57
2023-01-23T04:01:31.668Z,5.03
2023-01-23T04:06:36.442Z,4.88
2023-01-23T04:11:40.526Z,4.40
2023-01-23T04:16:48.564Z,4.70
2023-01-23T04:21:53.321Z,4.30
2023-01-23T04:26:58.252Z,5.18
2023-01-23T04:32:05.698Z,5.07
2023-01-23T04:37:12.717Z,4.93
2023-01-23T04:42:17.639Z,5.07
2023-01-23T04:47:29.607Z,5.22
2023-01-23T04:52:35.017Z,5.40
2023-01-23T04:57:39.915Z,5.05
2023-01-23T05:02:57.154Z,6.80
2023-01-23T05:08:01.940Z,4.40
2023-01-23T05:13:06.996Z,5.30
2023-01-23T05:18:12.502Z,4.13
2023-01-23T05:23:17.789Z,7.95
2023-01-23T05:28:29.678Z,5.00
2023-01-23T05:33:35.081Z,4.40
2023-01-23T05:38:40.374Z,2.42
2023-01-23T05:43:45.561Z,2.45
2023-01-23T05:49:00.608Z,2.03
2023-01-23T05:54:05.021Z,1.67
2023-01-23T05:59:11.911Z,1.77
2023-01-23T06:04:26.227Z,1.92
2023-01-23T06:09:48.989Z,3.00
2023-01-23T06:14:53.081Z,4.10
2023-01-23T06:20:01.916Z,5.55
2023-01-23T06:25:08.800Z,5.28
2023-01-23T06:30:14.352Z,6.65
2023-01-23T06:35:24.388Z,5.28
2023-01-23T06:40:28.637Z,6.40
2023-01-23T06:45:57.916Z,7.03
2023-01-23T06:51:04.731Z,4.45
2023-01-23T06:56:11.936Z,6.68
2023-01-23T07:01:18.530Z,6.35
2023-01-23T07:06:42.735Z,7.03
2023-01-23T07:11:48.591Z,7.70
2023-01-23T07:16:55.979Z,7.85
2023-01-23T07:22:03.429Z,8.30
2023-01-23T07:27:07.590Z,7.20
2023-01-23T07:32:12.700Z,7.07
2023-01-23T07:37:20.637Z,7.45
2023-01-23T07:42:26.840Z,7.05
2023-01-23T07:47:31.295Z,7.15
2023-01-23T07:52:37.228Z,7.10
2023-01-23T07:57:42.859Z,8.10
2023-01-23T08:02:47.321Z,7.57
2023-01-23T08:08:07.352Z,7.18
2023-01-23T08:13:19.098Z,6.63
2023-01-23T08:18:23.719Z,6.78
2023-01-23T08:23:33.774Z,6.97
2023-01-23T08:28:37.884Z,7.38
2023-01-23T08:33:42.209Z,7.10
2023-01-23T08:38:48.376Z,6.40
2023-01-23T08:43:52.796Z,6.05
2023-01-23T08:48:58.026Z,6.18
2023-01-23T08:54:04.291Z,5.72
2023-01-23T08:59:09.572Z,7.38
2023-01-23T09:04:13.879Z,4.47
2023-01-23T09:09:20.577Z,5.88
2023-01-23T09:14:25.304Z,6.03
2023-01-23T09:19:34.661Z,4.82
2023-01-23T09:29:44.285Z,6.78
2023-01-23T09:34:49.709Z,5.90
2023-01-23T09:39:55.433Z,5.72
2023-01-23T09:45:05.250Z,6.20
2023-01-23T09:50:22.536Z,6.75
2023-01-23T09:55:41.626Z,5.70
2023-01-23T10:00:46.740Z,5.28
2023-01-23T10:06:06.212Z,6.15
2023-01-23T10:11:18.784Z,6.13
2023-01-23T10:16:53.639Z,6.05
2023-01-23T10:22:05.487Z,5.68
2023-01-23T10:27:19.729Z,5.50
2023-01-23T10:32:30.374Z,5.82
2023-01-23T10:37:44.885Z,5.00
2023-01-23T10:42:50.609Z,4.88
2023-01-23T10:47:55.556Z,4.30
2023-01-23T10:53:09.711Z,5.65
2023-01-23T10:58:31.088Z,5.35
2023-01-23T11:03:37.675Z,4.93
2023-01-23T11:08:53.565Z,6.53
2023-01-23T11:14:09.531Z,5.82
2023-01-23T11:19:20.812Z,5.53
2023-01-23T11:24:40.386Z,5.80
2023-01-23T11:30:02.566Z,5.80
2023-01-23T11:35:15.200Z,5.65
2023-01-23T11:40:21.488Z,5.97
2023-01-23T11:45:46.871Z,5.80
2023-01-23T11:50:55.741Z,5.63
2023-01-23T11:56:24.236Z,5.28
2023-01-23T12:01:36.186Z,5.53
2023-01-23T12:06:49.596Z,5.18
2023-01-23T12:12:09.387Z,5.18
2023-01-23T12:17:27.516Z,5.07
2023-01-23T12:22:46.607Z,5.78
2023-01-23T12:27:58.041Z,5.60
2023-01-23T12:33:19.921Z,6.57
2023-01-23T12:38:30.998Z,6.90
2023-01-23T12:43:39.615Z,7.22
2023-01-23T12:48:51.789Z,7.60
2023-01-23T12:53:59.979Z,8.70
2023-01-23T12:59:14.560Z,8.82
2023-01-23T13:04:42.312Z,8.40
2023-01-23T13:10:03.788Z,7.72
2023-01-23T13:15:39.895Z,8.50
2023-01-23T13:21:15.014Z,9.27
2023-01-23T13:26:37.322Z,9.57
2023-01-23T13:31:46.436Z,9.90
2023-01-23T13:36:53.469Z,9.60
2023-01-23T13:42:35.986Z,7.95
2023-01-23T14:21:13.062Z,11.20
2023-01-23T14:26:23.083Z,12.88
2023-01-23T14:31:29.807Z,11.35
2023-01-23T14:36:36.479Z,11.27
2023-01-23T14:41:43.762Z,10.48
2023-01-23T14:46:54.483Z,12.38
2023-01-23T14:52:01.486Z,12.02
2023-01-23T14:57:10.416Z,11.88
2023-01-23T15:02:36.115Z,12.50
2023-01-23T15:07:45.757Z,11.75
2023-01-23T15:12:57.655Z,14.75
2023-01-23T15:18:03.114Z,14.70
2023-01-23T15:23:28.641Z,11.23
2023-01-23T15:28:41.331Z,11.70
2023-01-23T15:33:47.968Z,13.65
2023-01-23T15:38:52.504Z,12.88
2023-01-23T15:43:57.973Z,12.43
2023-01-23T15:49:03.378Z,10.02
2023-01-23T15:54:19.282Z,12.02
2023-01-23T15:59:25.586Z,11.93
2023-01-23T16:04:29.656Z,10.30
2023-01-23T16:09:37.306Z,9.35
2023-01-23T16:14:43.745Z,10.55
2023-01-23T16:19:48.376Z,9.00
2023-01-23T16:24:53.037Z,15.27
2023-01-23T16:29:59.579Z,16.38
2023-01-23T16:35:05.962Z,10.50
2023-01-23T16:40:22.051Z,9.57
2023-01-23T16:45:33.763Z,11.38
2023-01-23T16:50:43.171Z,11.05
2023-01-23T16:55:48.014Z,10.60
2023-01-23T17:01:00.365Z,10.90
2023-01-23T17:06:06.091Z,9.63
2023-01-23T17:11:22.076Z,9.55
2023-01-23T17:16:43.946Z,9.03
2023-01-23T17:21:49.591Z,8.37
2023-01-23T17:27:01.906Z,8.27
2023-01-23T17:32:08.598Z,7.78
2023-01-23T17:37:21.595Z,8.43
2023-01-23T17:42:26.816Z,8.43
2023-01-23T17:47:35.644Z,7.10
2023-01-23T17:52:41.119Z,8.00
2023-01-23T17:57:50.582Z,7.63
2023-01-23T18:03:03.168Z,6.15
2023-01-23T18:08:08.885Z,6.70
2023-01-23T18:13:21.116Z,4.95
2023-01-23T18:18:37.591Z,5.03
2023-01-23T18:23:45.684Z,6.10
2023-01-23T18:29:09.071Z,6.50
2023-01-23T18:34:34.263Z,5.68
2023-01-23T18:39:48.088Z,5.50
2023-01-23T18:45:00.811Z,5.97
2023-01-23T18:50:12.388Z,5.20
2023-01-23T18:55:31.356Z,5.35
2023-01-23T19:00:46.924Z,6.00
2023-01-23T19:05:55.066Z,4.30
2023-01-23T19:11:07.483Z,3.45
2023-01-23T19:16:17.995Z,3.22
2023-01-23T19:21:30.342Z,2.90
2023-01-23T19:26:36.452Z,3.95
2023-01-23T19:31:47.484Z,3.60
2023-01-23T19:37:01.988Z,3.30
2023-01-23T19:42:10.331Z,3.20
2023-01-23T19:47:15.123Z,3.75
2023-01-23T19:52:24.461Z,2.15
2023-01-23T19:57:29.809Z,3.33
2023-01-23T20:02:35.480Z,3.00
2023-01-23T20:07:46.742Z,3.03
2023-01-23T20:12:57.663Z,2.22
2023-01-23T20:18:04.399Z,2.28
2023-01-23T20:28:18.837Z,1.88
2023-01-23T20:33:24.074Z,2.08
2023-01-23T20:38:30.338Z,2.50
2023-01-23T20:43:35.643Z,2.67
2023-01-23T20:48:43.016Z,2.55
2023-01-23T20:53:52.251Z,3.47
2023-01-23T20:59:15.564Z,5.18
2023-01-23T21:04:22.290Z,11.40
2023-01-23T21:09:29.242Z,16.52
2023-01-23T21:14:33.757Z,5.82
2023-01-23T21:19:40.325Z,5.68
2023-01-23T21:24:58.848Z,4.63
2023-01-23T21:30:03.951Z,7.18
2023-01-23T21:35:08.500Z,4.93
2023-01-23T21:40:15.237Z,5.60
2023-01-23T21:45:19.897Z,4.38
2023-01-23T21:50:24.267Z,5.38
2023-01-23T21:55:29.668Z,4.95
2023-01-23T22:00:51.651Z,3.67
2023-01-23T22:05:59.982Z,3.75
2023-01-23T22:11:06.061Z,5.97
2023-01-23T22:16:12.000Z,4.45
2023-01-23T22:21:17.810Z,3.80
2023-01-23T22:26:23.283Z,4.75
2023-01-23T22:31:27.352Z,3.28
2023-01-23T22:36:32.669Z,3.60
2023-01-23T22:41:38.552Z,5.18
2023-01-23T22:46:46.130Z,5.47
2023-01-23T22:51:51.694Z,4.80
2023-01-23T22:57:01.149Z,5.50
2023-01-23T23:02:05.177Z,2.92
2023-01-23T23:07:09.542Z,2.88
2023-01-23T23:12:14.894Z,2.67
2023-01-23T23:17:19.034Z,4.53
2023-01-23T23:22:25.857Z,5.30
2023-01-23T23:27:31.917Z,4.97
2023-01-23T23:32:36.651Z,4.60
2023-01-23T23:37:40.668Z,4.07
2023-01-23T23:42:46.264Z,3.30
2023-01-23T23:47:50.225Z,3.03
2023-01-23T23:52:54.317Z,3.28
2023-01-23T23:58:00.724Z,3.40
